Time;durP1;ratioP1;P1;durP2;ratioP2;P2;SDS_P1;SDS_P2;PMS_P1;PMS_P2;Temp;Humidity;BMP_temperature;BMP_pressure;BME280_temperature;BME280_humidity;BME280_pressure;Samples;Min_cycle;Max_cycle;Signal;HPM_P1;HPM_P2
2021/03/18 00:02:21;;;;;;;0.90;0.90;;;3.30;99.90;;;;;;5032921;28;20366;-93
2021/03/18 00:04:47;;;;;;;0.57;0.57;;;3.30;99.90;;;;;;5039627;28;20182;-93
2021/03/18 00:07:13;;;;;;;0.30;0.30;;;3.30;99.90;;;;;;5010554;28;20634;-93
2021/03/18 00:09:38;;;;;;;0.20;0.20;;;3.40;99.90;;;;;;5010487;28;20210;-94
2021/03/18 00:12:05;;;;;;;1.33;1.23;;;3.40;99.90;;;;;;5019033;28;20643;-93
2021/03/18 00:14:30;;;;;;;0.30;0.30;;;3.40;99.90;;;;;;4996520;28;20224;-94
2021/03/18 00:16:56;;;;;;;0.37;0.37;;;3.40;99.90;;;;;;5029622;28;20201;-90
2021/03/18 00:19:22;;;;;;;0.30;0.30;;;3.30;99.90;;;;;;5029122;28;20194;-92
2021/03/18 00:21:48;;;;;;;0.30;0.30;;;3.30;99.90;;;;;;5029186;28;20218;-93
2021/03/18 00:24:15;;;;;;;1.13;1.13;;;3.30;99.90;;;;;;5026040;28;20267;-92
2021/03/18 00:26:41;;;;;;;0.30;0.30;;;3.30;99.90;;;;;;5026663;28;20217;-92
2021/03/18 00:29:07;;;;;;;1.10;0.77;;;3.30;99.90;;;;;;4994210;28;20208;-92
2021/03/18 00:31:35;;;;;;;0.20;0.20;;;3.20;99.90;;;;;;5027562;28;20194;-92
2021/03/18 00:34:02;;;;;;;0.57;0.57;;;3.30;99.90;;;;;;5007272;28;20221;-92
2021/03/18 00:36:28;;;;;;;0.30;0.30;;;3.40;99.90;;;;;;5007277;28;20313;-93
2021/03/18 00:38:54;;;;;;;0.57;0.57;;;3.50;99.90;;;;;;5007505;28;20222;-93
2021/03/18 00:41:20;;;;;;;0.40;0.40;;;3.80;99.90;;;;;;5024625;28;20233;-92
2021/03/18 00:43:46;;;;;;;1.23;1.20;;;3.90;99.90;;;;;;5025671;28;20753;-92
2021/03/18 00:46:13;;;;;;;0.93;0.60;;;4.10;99.90;;;;;;5011008;28;20290;-92
2021/03/18 00:48:39;;;;;;;0.90;0.90;;;4.20;99.90;;;;;;5026885;28;20233;-92
2021/03/18 00:51:16;;;;;;;0.83;0.67;;;4.30;99.90;;;;;;5026913;28;20249;-92
2021/03/18 00:53:45;;;;;;;2.00;0.33;;;4.40;99.90;;;;;;5026757;28;20205;-92
2021/03/18 00:56:14;;;;;;;0.10;0.10;;;4.40;99.90;;;;;;5024932;28;20205;-92
2021/03/18 00:58:41;;;;;;;0.40;0.40;;;4.50;99.90;;;;;;5024968;28;20179;-92
2021/03/18 01:01:07;;;;;;;1.63;1.53;;;4.50;99.90;;;;;;5023886;28;20210;-93
2021/03/18 01:03:36;;;;;;;0.20;0.20;;;4.60;99.90;;;;;;5020813;28;20209;-92
2021/03/18 01:06:36;;;;;;;0.80;0.80;;;4.60;99.90;;;;;;5026867;28;20293;-92
2021/03/18 01:09:04;;;;;;;0.20;0.20;;;4.50;99.90;;;;;;4984936;28;20214;-92
2021/03/18 01:11:36;;;;;;;2.97;0.87;;;4.50;99.90;;;;;;5010680;28;20218;-93
2021/03/18 01:14:07;;;;;;;0.97;0.97;;;4.60;99.90;;;;;;5011347;28;20204;-92
2021/03/18 01:16:52;;;;;;;2.10;0.33;;;4.50;99.90;;;;;;5029006;28;20740;-92
2021/03/18 01:19:22;;;;;;;0.40;0.40;;;4.60;99.90;;;;;;5010787;28;20706;-93
2021/03/18 01:21:51;;;;;;;0.20;0.20;;;4.60;99.90;;;;;;5043595;28;20686;-92
2021/03/18 01:24:18;;;;;;;1.60;0.90;;;4.60;99.90;;;;;;5027782;28;21264;-92
2021/03/18 01:26:44;;;;;;;3.30;0.63;;;4.70;99.90;;;;;;5023185;28;20210;-92
2021/03/18 01:29:11;;;;;;;1.33;1.23;;;4.70;99.90;;;;;;5002713;28;20189;-92
2021/03/18 01:31:37;;;;;;;1.30;1.20;;;4.80;99.90;;;;;;5011321;28;20213;-92
2021/03/18 01:34:04;;;;;;;1.07;0.97;;;4.80;99.90;;;;;;5028517;28;20233;-92
2021/03/18 01:36:32;;;;;;;0.70;0.70;;;4.80;99.90;;;;;;5046629;28;20249;-93
2021/03/18 01:38:58;;;;;;;2.33;0.43;;;4.90;99.90;;;;;;5030184;28;20213;-93
2021/03/18 01:41:26;;;;;;;5.47;1.47;;;4.90;99.90;;;;;;5010620;28;20218;-92
2021/03/18 01:43:52;;;;;;;3.20;1.10;;;4.90;99.90;;;;;;4998459;28;20261;-93
2021/03/18 01:46:18;;;;;;;1.17;1.07;;;5.00;99.90;;;;;;5015049;28;20210;-93
2021/03/18 01:48:45;;;;;;;8.03;0.97;;;5.00;99.90;;;;;;5027165;28;20699;-93
2021/03/18 01:51:13;;;;;;;0.70;0.50;;;5.10;99.90;;;;;;5031775;28;20682;-92
2021/03/18 01:53:39;;;;;;;5.20;2.97;;;5.00;99.90;;;;;;5026143;28;20691;-92
2021/03/18 01:56:06;;;;;;;0.83;0.83;;;5.10;99.90;;;;;;4979282;28;20219;-93
2021/03/18 01:58:33;;;;;;;1.13;0.93;;;5.10;99.90;;;;;;5013541;28;20183;-93
2021/03/18 02:01:04;;;;;;;0.33;0.33;;;5.10;99.90;;;;;;5011868;28;20210;-92
2021/03/18 02:03:29;;;;;;;0.30;0.30;;;5.10;99.90;;;;;;5024728;28;20218;-92
2021/03/18 02:05:56;;;;;;;5.70;0.80;;;5.10;99.90;;;;;;5032225;28;20228;-92
2021/03/18 02:08:22;;;;;;;0.60;0.60;;;5.10;99.90;;;;;;5032479;28;20241;-92
2021/03/18 02:10:48;;;;;;;0.83;0.57;;;5.10;99.90;;;;;;5050688;28;20208;-93
2021/03/18 02:13:15;;;;;;;1.47;0.53;;;5.10;99.90;;;;;;5030975;28;20801;-92
2021/03/18 02:15:48;;;;;;;1.13;0.73;;;5.10;99.90;;;;;;5045738;28;20225;-92
2021/03/18 02:18:16;;;;;;;1.00;0.63;;;5.10;99.90;;;;;;5029359;28;20210;-92
2021/03/18 02:20:45;;;;;;;0.63;0.63;;;5.10;99.90;;;;;;5029530;28;20241;-92
2021/03/18 02:23:35;;;;;;;5.20;1.00;;;5.10;99.90;;;;;;5026887;28;20240;-92
2021/03/18 02:26:09;;;;;;;0.93;0.63;;;5.10;99.90;;;;;;5009293;28;20186;-93
2021/03/18 02:29:06;;;;;;;0.40;0.40;;;5.10;99.90;;;;;;5010636;28;20190;-92
2021/03/18 02:31:53;;;;;;;1.27;0.80;;;5.10;99.90;;;;;;5044465;28;20249;-92
2021/03/18 02:34:28;;;;;;;6.50;1.77;;;5.10;99.90;;;;;;5029770;28;20216;-92
2021/03/18 02:37:07;;;;;;;1.43;1.33;;;5.00;99.90;;;;;;5029156;28;20221;-92
2021/03/18 02:39:39;;;;;;;2.00;1.03;;;5.00;99.90;;;;;;5044731;28;20202;-93
2021/03/18 02:42:07;;;;;;;0.87;0.87;;;5.10;99.90;;;;;;5045475;28;20218;-93
2021/03/18 02:44:35;;;;;;;4.07;0.97;;;5.10;99.90;;;;;;5011766;28;20236;-93
2021/03/18 02:47:08;;;;;;;0.50;0.50;;;5.10;99.90;;;;;;5012149;28;20233;-92
2021/03/18 02:49:38;;;;;;;1.33;0.93;;;5.10;99.90;;;;;;5030116;28;20554;-93
2021/03/18 02:52:05;;;;;;;1.97;0.57;;;5.20;99.90;;;;;;5045471;28;20206;-92
2021/03/18 02:54:33;;;;;;;2.90;0.63;;;5.30;99.90;;;;;;5028487;28;20690;-92
2021/03/18 02:57:02;;;;;;;7.23;0.93;;;5.30;99.90;;;;;;5012158;28;20213;-93
2021/03/18 02:59:33;;;;;;;0.83;0.83;;;5.30;99.90;;;;;;5003445;28;20226;-92
2021/03/18 03:02:03;;;;;;;0.30;0.30;;;5.30;99.90;;;;;;5028699;28;20208;-92
2021/03/18 03:04:30;;;;;;;0.97;0.73;;;5.30;99.90;;;;;;5030514;28;20231;-93
2021/03/18 03:06:57;;;;;;;1.27;1.20;;;5.30;99.90;;;;;;5027905;28;20228;-92
2021/03/18 03:09:24;;;;;;;1.90;1.53;;;5.30;99.90;;;;;;5025219;28;20305;-92
2021/03/18 03:11:50;;;;;;;1.77;1.67;;;5.30;99.90;;;;;;5000049;28;20560;-92
2021/03/18 03:14:18;;;;;;;1.77;0.90;;;5.40;99.90;;;;;;4995612;28;20697;-93
2021/03/18 03:16:45;;;;;;;1.53;1.43;;;5.40;99.90;;;;;;5006929;28;20690;-93
2021/03/18 03:19:12;;;;;;;0.70;0.23;;;5.40;99.90;;;;;;5011549;28;20234;-92
2021/03/18 03:21:37;;;;;;;2.67;1.83;;;5.40;99.90;;;;;;5028132;28;20214;-92
2021/03/18 03:24:07;;;;;;;0.40;0.33;;;5.40;99.90;;;;;;5007906;28;20762;-92
2021/03/18 03:26:34;;;;;;;3.63;1.27;;;5.40;99.90;;;;;;5012845;28;20237;-92
2021/03/18 03:29:01;;;;;;;0.50;0.37;;;5.40;99.90;;;;;;5011565;28;20274;-93
2021/03/18 03:31:27;;;;;;;0.43;0.43;;;5.50;99.90;;;;;;4995664;28;20205;-92
2021/03/18 03:33:53;;;;;;;4.10;0.77;;;5.50;99.90;;;;;;5028296;28;20579;-92
2021/03/18 03:36:19;;;;;;;7.67;1.20;;;5.50;99.90;;;;;;5013264;28;20244;-93
2021/03/18 03:38:45;;;;;;;3.67;1.67;;;5.50;99.90;;;;;;4989564;28;20214;-93
2021/03/18 03:41:11;;;;;;;20.00;2.07;;;5.50;99.90;;;;;;4992828;28;20191;-92
2021/03/18 03:43:37;;;;;;;1.03;0.50;;;5.50;99.90;;;;;;5011296;28;20198;-93
2021/03/18 03:46:04;;;;;;;6.30;1.77;;;5.50;99.90;;;;;;5018131;28;20217;-93
2021/03/18 03:48:32;;;;;;;8.10;1.77;;;5.50;99.90;;;;;;4997007;28;20215;-92
2021/03/18 03:51:00;;;;;;;4.00;1.83;;;5.50;99.90;;;;;;5017510;28;20297;-91
2021/03/18 03:53:47;;;;;;;1.57;1.50;;;5.50;99.90;;;;;;5028544;28;20281;-93
2021/03/18 03:56:35;;;;;;;2.63;0.30;;;5.40;99.90;;;;;;5029214;28;20206;-94
2021/03/18 03:59:15;;;;;;;0.30;0.30;;;5.40;99.90;;;;;;5027346;28;20573;-92
2021/03/18 04:01:44;;;;;;;0.77;0.57;;;5.50;99.90;;;;;;5045082;28;20182;-93
2021/03/18 04:04:21;;;;;;;1.63;0.30;;;5.50;99.90;;;;;;5027640;28;20222;-93
2021/03/18 04:06:54;;;;;;;0.67;0.57;;;5.50;99.90;;;;;;5007419;28;20222;-92
2021/03/18 04:09:22;;;;;;;2.47;1.23;;;5.50;99.90;;;;;;5019054;28;20306;-93
2021/03/18 04:11:50;;;;;;;4.50;0.93;;;5.50;99.90;;;;;;5024461;28;20214;-92
2021/03/18 04:14:20;;;;;;;8.10;1.17;;;5.50;99.90;;;;;;4998122;28;20713;-92
2021/03/18 04:16:47;;;;;;;1.40;1.27;;;5.50;99.90;;;;;;4992137;28;20210;-92
2021/03/18 04:19:19;;;;;;;1.00;1.00;;;5.50;99.90;;;;;;4990996;28;20260;-92
2021/03/18 04:21:48;;;;;;;3.23;1.37;;;5.60;99.90;;;;;;5022390;28;20244;-93
2021/03/18 04:24:15;;;;;;;1.13;1.03;;;5.50;99.90;;;;;;5026963;28;20584;-92
2021/03/18 04:26:43;;;;;;;0.93;0.60;;;5.60;99.90;;;;;;5010999;28;20751;-92
2021/03/18 04:29:09;;;;;;;4.30;0.93;;;5.60;99.90;;;;;;5012039;28;20182;-92
2021/03/18 04:31:40;;;;;;;1.30;1.30;;;5.50;99.90;;;;;;5011332;28;20193;-92
2021/03/18 04:34:09;;;;;;;5.07;2.23;;;5.50;99.90;;;;;;5026874;28;20198;-92
2021/03/18 04:36:37;;;;;;;6.20;0.87;;;5.50;99.90;;;;;;5026990;28;20301;-93
2021/03/18 04:39:06;;;;;;;19.53;1.83;;;5.50;99.90;;;;;;5010785;28;20221;-92
2021/03/18 04:41:32;;;;;;;1.87;1.63;;;5.50;99.90;;;;;;5027455;28;20304;-92
2021/03/18 04:43:58;;;;;;;2.80;1.63;;;5.50;99.90;;;;;;5010505;28;20217;-92
2021/03/18 04:46:26;;;;;;;11.33;1.37;;;5.50;99.90;;;;;;5007735;28;20643;-93
2021/03/18 04:48:55;;;;;;;1.20;0.77;;;5.50;99.90;;;;;;4975096;28;20805;-93
2021/03/18 04:51:21;;;;;;;13.03;1.43;;;5.50;99.90;;;;;;5002641;28;20233;-93
2021/03/18 04:53:47;;;;;;;2.43;1.07;;;5.50;99.90;;;;;;5026936;28;20585;-92
2021/03/18 04:56:17;;;;;;;0.30;0.30;;;5.60;99.90;;;;;;4994100;28;20210;-93
2021/03/18 04:58:43;;;;;;;1.03;0.50;;;5.50;99.90;;;;;;5012645;28;21428;-92
2021/03/18 05:01:09;;;;;;;0.30;0.30;;;5.60;99.90;;;;;;4993770;28;20282;-93
2021/03/18 05:03:36;;;;;;;4.43;0.90;;;5.50;99.90;;;;;;5010573;28;20221;-92
2021/03/18 05:06:05;;;;;;;3.87;1.93;;;5.50;99.90;;;;;;5011065;28;20218;-92
2021/03/18 05:08:34;;;;;;;3.60;0.97;;;5.50;99.90;;;;;;5010315;28;20229;-93
2021/03/18 05:11:00;;;;;;;1.50;1.20;;;5.50;99.90;;;;;;5030063;28;20197;-92
2021/03/18 05:13:28;;;;;;;4.03;1.17;;;5.60;99.90;;;;;;5016141;28;20574;-93
2021/03/18 05:15:56;;;;;;;1.77;1.60;;;5.60;99.90;;;;;;5014142;28;20216;-93
2021/03/18 05:18:24;;;;;;;4.53;1.90;;;5.60;99.90;;;;;;5028312;28;20234;-95
2021/03/18 05:20:51;;;;;;;6.17;1.00;;;5.60;99.90;;;;;;5032921;28;20217;-94
2021/03/18 05:23:18;;;;;;;13.13;0.93;;;5.50;99.90;;;;;;5031139;28;20237;-95
2021/03/18 05:25:46;;;;;;;2.30;2.03;;;5.50;99.90;;;;;;5034089;28;20186;-94
2021/03/18 05:28:13;;;;;;;3.57;0.63;;;5.60;99.90;;;;;;5032340;28;20225;-94
2021/03/18 05:30:39;;;;;;;2.87;0.77;;;5.60;99.90;;;;;;5032356;28;20206;-94
2021/03/18 05:33:05;;;;;;;3.43;0.67;;;5.60;99.90;;;;;;5048019;28;20237;-93
2021/03/18 05:35:33;;;;;;;4.43;2.03;;;5.60;99.90;;;;;;5016891;28;20224;-95
2021/03/18 05:37:59;;;;;;;0.27;0.27;;;5.60;99.90;;;;;;5017942;28;20178;-94
2021/03/18 05:40:25;;;;;;;9.63;0.97;;;5.50;99.90;;;;;;5035190;28;21228;-95
2021/03/18 05:42:51;;;;;;;0.73;0.53;;;5.50;99.90;;;;;;5034755;28;20218;-94
2021/03/18 05:45:18;;;;;;;5.30;1.43;;;5.50;99.90;;;;;;5034325;28;20217;-92
2021/03/18 05:47:45;;;;;;;1.23;1.13;;;5.50;99.90;;;;;;5026851;28;20214;-94
2021/03/18 05:50:15;;;;;;;1.03;0.87;;;5.50;99.90;;;;;;5016178;28;20173;-95
2021/03/18 05:52:41;;;;;;;4.53;0.77;;;5.50;99.90;;;;;;5035806;28;20186;-94
2021/03/18 05:55:08;;;;;;;0.97;0.87;;;5.50;99.90;;;;;;5015794;28;20214;-94
2021/03/18 05:57:36;;;;;;;2.67;0.50;;;5.50;99.90;;;;;;5028188;28;20228;-91
2021/03/18 06:00:10;;;;;;;9.93;0.90;;;5.50;99.90;;;;;;5034259;28;20229;-94
2021/03/18 06:02:36;;;;;;;4.43;1.40;;;5.50;99.90;;;;;;5033980;28;20217;-93
2021/03/18 06:05:10;;;;;;;9.70;1.90;;;5.30;99.90;;;;;;5033703;28;20178;-93
2021/03/18 06:07:42;;;;;;;26.63;2.63;;;5.30;99.90;;;;;;5035295;28;20209;-94
2021/03/18 06:10:21;;;;;;;4.03;0.47;;;5.20;99.90;;;;;;5034457;28;20210;-93
2021/03/18 06:12:49;;;;;;;4.87;0.80;;;5.20;99.90;;;;;;5031951;28;20309;-94
2021/03/18 06:15:16;;;;;;;0.53;0.53;;;5.20;99.90;;;;;;5033100;28;20292;-94
2021/03/18 06:17:43;;;;;;;5.87;3.00;;;5.20;99.90;;;;;;5048411;28;20210;-93
2021/03/18 06:20:11;;;;;;;10.33;1.67;;;5.20;99.90;;;;;;5035005;28;20194;-91
2021/03/18 06:22:41;;;;;;;12.03;1.30;;;5.30;99.90;;;;;;5039224;28;20186;-94
2021/03/18 06:25:27;;;;;;;3.03;2.33;;;5.30;99.90;;;;;;5010795;28;20211;-93
2021/03/18 06:28:13;;;;;;;2.40;2.23;;;5.30;99.90;;;;;;5037418;28;20300;-95
2021/03/18 06:30:41;;;;;;;1.13;1.03;;;5.40;99.90;;;;;;5036069;28;20221;-92
2021/03/18 06:33:22;;;;;;;3.93;1.10;;;5.40;99.90;;;;;;5035779;28;20283;-94
2021/03/18 06:35:48;;;;;;;14.47;1.63;;;5.40;99.90;;;;;;5036418;28;20221;-92
2021/03/18 06:38:14;;;;;;;3.13;1.53;;;5.50;99.90;;;;;;5035072;28;20185;-94
2021/03/18 06:40:46;;;;;;;1.07;0.77;;;5.50;99.90;;;;;;5032616;28;20196;-91
2021/03/18 06:43:15;;;;;;;17.67;1.53;;;5.60;99.90;;;;;;5034401;28;20213;-95
2021/03/18 06:45:43;;;;;;;3.60;3.07;;;5.60;99.90;;;;;;5030971;28;20224;-91
2021/03/18 06:48:12;;;;;;;0.40;0.40;;;5.70;99.90;;;;;;5029742;28;20259;-92
2021/03/18 06:50:42;;;;;;;8.93;1.10;;;5.70;99.90;;;;;;5047491;28;20229;-94
2021/03/18 06:53:24;;;;;;;5.07;0.70;;;5.70;99.90;;;;;;5035604;28;20189;-94
2021/03/18 06:55:53;;;;;;;0.77;0.77;;;5.80;99.90;;;;;;5041807;28;20289;-91
2021/03/18 06:58:23;;;;;;;2.83;1.37;;;5.80;99.90;;;;;;5034276;28;20225;-93
2021/03/18 07:01:07;;;;;;;4.87;1.37;;;5.90;99.90;;;;;;5031968;28;20214;-92
2021/03/18 07:03:38;;;;;;;1.10;1.10;;;5.90;99.90;;;;;;5036421;28;20281;-92
2021/03/18 07:06:25;;;;;;;3.83;0.73;;;5.90;99.90;;;;;;5029506;28;20222;-94
2021/03/18 07:09:03;;;;;;;1.00;1.00;;;6.00;99.90;;;;;;5023283;28;20226;-91
2021/03/18 07:11:29;;;;;;;7.03;1.67;;;6.00;99.90;;;;;;5004197;28;20277;-95
2021/03/18 07:13:55;;;;;;;1.27;1.27;;;6.10;99.90;;;;;;5007839;28;20194;-91
2021/03/18 07:16:22;;;;;;;1.03;0.93;;;6.10;99.90;;;;;;5013849;28;20294;-94
2021/03/18 07:18:58;;;;;;;9.23;0.70;;;6.20;99.90;;;;;;5008587;28;20217;-92
2021/03/18 07:21:35;;;;;;;4.10;1.80;;;6.20;99.90;;;;;;5030500;28;20214;-96
2021/03/18 07:24:02;;;;;;;2.50;0.50;;;6.30;99.90;;;;;;5013573;28;20275;-95
2021/03/18 07:26:28;;;;;;;0.93;0.77;;;6.30;99.90;;;;;;5025113;28;20729;-95
2021/03/18 07:29:16;;;;;;;20.57;1.60;;;6.30;99.90;;;;;;5011866;28;20205;-91
2021/03/18 07:31:42;;;;;;;11.50;1.67;;;6.40;99.90;;;;;;4996234;28;20238;-94
2021/03/18 07:34:09;;;;;;;12.83;0.83;;;6.40;99.90;;;;;;5026593;28;20218;-94
2021/03/18 07:36:35;;;;;;;0.93;0.90;;;6.40;99.90;;;;;;5009514;28;20224;-94
2021/03/18 07:39:03;;;;;;;1.53;1.10;;;6.50;99.90;;;;;;5023737;28;20264;-92
2021/03/18 07:41:32;;;;;;;1.27;0.70;;;6.50;99.90;;;;;;5019716;28;20615;-96
2021/03/18 07:43:59;;;;;;;12.60;1.13;;;6.50;99.90;;;;;;5045053;28;20189;-94
2021/03/18 07:46:28;;;;;;;0.97;0.97;;;6.50;99.90;;;;;;5032388;28;20189;-95
2021/03/18 07:49:00;;;;;;;1.67;1.53;;;6.50;99.90;;;;;;5016356;28;20227;-95
2021/03/18 07:51:30;;;;;;;3.13;1.03;;;6.40;99.90;;;;;;5019212;28;20304;-94
2021/03/18 07:53:59;;;;;;;6.00;2.13;;;6.50;99.90;;;;;;5027224;28;20214;-95
2021/03/18 07:56:26;;;;;;;1.27;0.93;;;6.50;99.90;;;;;;5025656;28;20566;-96
2021/03/18 07:58:53;;;;;;;0.60;0.60;;;6.50;99.90;;;;;;5031357;28;20217;-94
2021/03/18 08:01:32;;;;;;;3.13;1.37;;;6.50;99.90;;;;;;5029263;28;20289;-96
2021/03/18 08:04:00;;;;;;;5.87;1.50;;;6.60;99.90;;;;;;5029256;28;20213;-92
2021/03/18 08:06:42;;;;;;;8.00;0.93;;;6.60;99.90;;;;;;5029316;28;20276;-93
2021/03/18 08:09:16;;;;;;;7.40;0.63;;;6.60;99.90;;;;;;5026285;28;20312;-91
2021/03/18 08:11:44;;;;;;;2.63;0.50;;;6.70;99.90;;;;;;5010957;28;20292;-90
2021/03/18 08:14:15;;;;;;;5.17;1.53;;;6.60;99.90;;;;;;5027614;28;20207;-91
2021/03/18 08:16:41;;;;;;;3.53;0.90;;;6.60;99.90;;;;;;5028162;28;20216;-91
2021/03/18 08:19:10;;;;;;;0.60;0.60;;;6.70;99.90;;;;;;5026854;28;20202;-93
2021/03/18 08:21:38;;;;;;;10.00;1.23;;;6.70;99.90;;;;;;5026117;28;20228;-91
2021/03/18 08:24:13;;;;;;;1.57;1.47;;;6.80;99.90;;;;;;5026123;28;20222;-92
2021/03/18 08:27:02;;;;;;;3.40;1.10;;;6.70;99.90;;;;;;5021757;28;20220;-92
2021/03/18 08:29:46;;;;;;;3.40;0.87;;;6.70;99.90;;;;;;5006785;28;20219;-92
2021/03/18 08:32:30;;;;;;;10.17;0.90;;;6.80;99.90;;;;;;5007616;28;20269;-91
2021/03/18 08:34:57;;;;;;;0.20;0.20;;;6.80;99.90;;;;;;5044906;28;20193;-92
2021/03/18 08:37:39;;;;;;;0.63;0.63;;;6.70;99.90;;;;;;5006922;28;20313;-91
2021/03/18 08:40:28;;;;;;;1.73;1.63;;;6.70;99.90;;;;;;5024674;28;20213;-93
2021/03/18 08:43:02;;;;;;;1.60;0.33;;;6.60;99.90;;;;;;5026844;28;20210;-92
2021/03/18 08:45:28;;;;;;;1.90;1.80;;;6.70;99.90;;;;;;5029050;28;20225;-92
2021/03/18 08:47:56;;;;;;;1.07;1.07;;;6.80;99.90;;;;;;5030666;28;20236;-94
2021/03/18 08:50:26;;;;;;;0.60;0.27;;;6.80;99.90;;;;;;5015175;28;20753;-94
2021/03/18 08:52:53;;;;;;;8.47;1.33;;;6.80;99.90;;;;;;5031187;28;20587;-92
2021/03/18 08:55:41;;;;;;;4.47;1.93;;;6.70;99.90;;;;;;5030672;28;20245;-93
2021/03/18 08:58:09;;;;;;;1.43;0.83;;;6.80;99.90;;;;;;5021968;28;20257;-92
2021/03/18 09:00:36;;;;;;;4.47;1.63;;;6.90;99.90;;;;;;5025674;28;20202;-93
2021/03/18 09:03:04;;;;;;;2.80;2.00;;;7.00;99.90;;;;;;5030051;28;20696;-91
2021/03/18 09:05:30;;;;;;;3.60;1.20;;;7.10;99.90;;;;;;5012385;28;20210;-92
2021/03/18 09:08:06;;;;;;;7.07;2.13;;;7.30;99.90;;;;;;5028773;28;20718;-93
2021/03/18 09:10:34;;;;;;;5.43;0.80;;;7.40;99.90;;;;;;5027116;28;20562;-93
2021/03/18 09:13:12;;;;;;;4.47;1.07;;;7.50;99.90;;;;;;5029847;28;20218;-93
2021/03/18 09:15:40;;;;;;;3.93;1.27;;;7.30;99.90;;;;;;5029624;28;20228;-93
2021/03/18 09:18:11;;;;;;;1.80;0.77;;;7.40;99.90;;;;;;5020912;28;20233;-92
2021/03/18 09:20:38;;;;;;;0.50;0.50;;;7.50;99.90;;;;;;5010719;28;20238;-93
2021/03/18 09:23:14;;;;;;;4.00;3.13;;;7.30;99.90;;;;;;4994669;28;20698;-95
2021/03/18 09:25:42;;;;;;;2.90;1.23;;;7.30;99.90;;;;;;5032193;28;20233;-93
2021/03/18 09:28:09;;;;;;;4.20;1.27;;;7.20;99.90;;;;;;4998583;28;20225;-93
2021/03/18 09:30:43;;;;;;;0.17;0.17;;;7.40;99.90;;;;;;5015582;28;20245;-94
2021/03/18 09:33:31;;;;;;;1.37;1.37;;;7.30;99.90;;;;;;5030098;28;20223;-95
2021/03/18 09:35:59;;;;;;;11.37;2.60;;;7.20;99.90;;;;;;5029000;28;20283;-95
2021/03/18 09:38:32;;;;;;;1.07;0.20;;;7.30;99.90;;;;;;5030135;28;20638;-94
2021/03/18 09:41:01;;;;;;;0.13;0.13;;;7.40;99.90;;;;;;5028677;28;20561;-94
2021/03/18 09:43:29;;;;;;;0.50;0.17;;;7.20;99.90;;;;;;5013727;28;20197;-95
2021/03/18 09:45:57;;;;;;;1.07;0.53;;;7.20;99.90;;;;;;5026911;28;20305;-92
2021/03/18 09:48:36;;;;;;;4.77;1.90;;;7.40;99.90;;;;;;5029085;28;20217;-95
2021/03/18 09:51:12;;;;;;;1.23;0.93;;;7.80;99.90;;;;;;5028806;28;20224;-95
2021/03/18 09:53:41;;;;;;;1.60;0.83;;;8.00;99.90;;;;;;5024818;28;20218;-94
2021/03/18 09:56:09;;;;;;;0.43;0.30;;;8.30;99.90;;;;;;5011571;28;20280;-94
2021/03/18 09:58:35;;;;;;;3.70;1.30;;;8.10;99.90;;;;;;5030017;28;20192;-95
2021/03/18 10:01:19;;;;;;;2.37;1.10;;;8.10;99.90;;;;;;4997836;28;20296;-95
2021/03/18 10:03:58;;;;;;;1.60;1.37;;;8.20;99.90;;;;;;5030178;28;20300;-93
2021/03/18 10:06:30;;;;;;;6.37;1.17;;;8.20;99.90;;;;;;5030598;28;20213;-93
2021/03/18 10:09:14;;;;;;;1.27;0.33;;;8.10;99.90;;;;;;5026303;28;20222;-92
2021/03/18 10:11:41;;;;;;;0.40;0.40;;;7.80;99.90;;;;;;5011056;28;20226;-94
2021/03/18 10:14:08;;;;;;;0.87;0.87;;;7.60;99.90;;;;;;5027402;28;20179;-95
2021/03/18 10:16:36;;;;;;;6.53;1.53;;;7.30;99.90;;;;;;5031213;28;20217;-93
2021/03/18 10:19:04;;;;;;;3.03;1.17;;;7.50;99.90;;;;;;5012424;28;20208;-96
2021/03/18 10:21:31;;;;;;;3.50;0.97;;;7.50;99.90;;;;;;5044671;28;20217;-96
2021/03/18 10:23:57;;;;;;;1.40;0.97;;;7.60;99.90;;;;;;5012987;28;20245;-96
2021/03/18 10:26:24;;;;;;;5.93;1.37;;;7.70;99.90;;;;;;5029168;28;20226;-94
2021/03/18 10:29:11;;;;;;;0.63;0.63;;;7.70;99.90;;;;;;5031158;28;20197;-96
2021/03/18 10:31:38;;;;;;;1.80;1.63;;;7.80;99.90;;;;;;5030856;28;20214;-93
2021/03/18 10:34:05;;;;;;;3.40;1.03;;;7.80;99.90;;;;;;5018709;28;20249;-92
2021/03/18 10:36:39;;;;;;;8.63;0.80;;;7.80;99.90;;;;;;5006137;28;20244;-91
2021/03/18 10:39:08;;;;;;;1.90;0.40;;;7.70;99.90;;;;;;4990988;28;20215;-95
2021/03/18 10:41:51;;;;;;;0.37;0.33;;;7.60;99.90;;;;;;5014018;28;20231;-92
2021/03/18 10:44:17;;;;;;;0.83;0.83;;;7.60;99.90;;;;;;5028429;28;20704;-95
2021/03/18 10:46:43;;;;;;;2.57;1.17;;;7.70;99.90;;;;;;5013575;28;20194;-93
2021/03/18 10:49:11;;;;;;;0.90;0.90;;;7.80;99.90;;;;;;4994621;28;20218;-92
2021/03/18 10:51:50;;;;;;;1.70;1.63;;;7.90;99.90;;;;;;5007762;28;20893;-94
2021/03/18 10:54:20;;;;;;;2.87;0.80;;;7.80;99.90;;;;;;5045202;28;20314;-93
2021/03/18 10:56:48;;;;;;;2.10;1.70;;;7.90;99.90;;;;;;5028978;28;20233;-93
2021/03/18 10:59:18;;;;;;;2.30;0.60;;;7.90;99.90;;;;;;5011733;28;20190;-92
2021/03/18 11:01:43;;;;;;;4.63;0.53;;;8.00;99.90;;;;;;5013311;28;20181;-92
2021/03/18 11:04:11;;;;;;;1.23;1.17;;;7.90;99.90;;;;;;5011961;28;20214;-92
2021/03/18 11:06:50;;;;;;;3.23;2.73;;;7.60;99.90;;;;;;5028557;28;20331;-92
2021/03/18 11:09:19;;;;;;;0.57;0.57;;;7.70;99.90;;;;;;5011599;28;20201;-93
2021/03/18 11:11:58;;;;;;;1.13;0.60;;;7.80;99.90;;;;;;5027854;28;20217;-91
2021/03/18 11:14:27;;;;;;;1.23;1.03;;;8.00;99.90;;;;;;5028379;28;20267;-91
2021/03/18 11:17:07;;;;;;;1.13;0.97;;;8.20;99.90;;;;;;5012690;28;20767;-91
2021/03/18 11:19:33;;;;;;;0.37;0.30;;;8.10;99.90;;;;;;5011577;28;20218;-90
2021/03/18 11:22:02;;;;;;;3.30;1.23;;;8.50;99.90;;;;;;5011702;28;20217;-92
2021/03/18 11:24:29;;;;;;;0.10;0.10;;;8.60;99.90;;;;;;5024293;28;20262;-90
2021/03/18 11:27:02;;;;;;;2.83;1.13;;;8.70;99.90;;;;;;5008014;28;20215;-91
2021/03/18 11:29:34;;;;;;;0.10;0.10;;;8.40;99.90;;;;;;5024240;28;20610;-90
2021/03/18 11:32:03;;;;;;;0.40;0.40;;;8.10;99.90;;;;;;5023817;28;20217;-91
2021/03/18 11:34:31;;;;;;;1.80;0.30;;;8.10;99.90;;;;;;5025642;28;21279;-90
2021/03/18 11:37:03;;;;;;;2.80;0.50;;;7.90;99.90;;;;;;5023654;28;20218;-90
2021/03/18 11:39:29;;;;;;;0.30;0.30;;;7.90;99.90;;;;;;5011717;28;20257;-90
2021/03/18 11:41:56;;;;;;;0.47;0.47;;;8.10;99.90;;;;;;5010956;28;20218;-90
2021/03/18 11:44:23;;;;;;;0.20;0.20;;;8.20;99.90;;;;;;5023881;28;20222;-90
2021/03/18 11:46:49;;;;;;;0.23;0.23;;;8.00;99.90;;;;;;5009848;28;20574;-90
2021/03/18 11:49:15;;;;;;;0.00;0.00;;;8.00;99.90;;;;;;5023761;28;20217;-89
2021/03/18 11:51:42;;;;;;;0.50;0.50;;;7.80;99.90;;;;;;4991566;28;20218;-90
2021/03/18 11:54:08;;;;;;;0.93;0.93;;;7.70;99.90;;;;;;5004395;28;20602;-90
2021/03/18 11:56:34;;;;;;;3.80;0.60;;;7.80;99.90;;;;;;4990759;28;20389;-89
2021/03/18 11:59:00;;;;;;;0.60;0.60;;;8.00;99.90;;;;;;4990975;28;20187;-90
2021/03/18 12:01:25;;;;;;;0.10;0.10;;;7.80;99.90;;;;;;4991669;28;20213;-89
2021/03/18 12:03:51;;;;;;;0.20;0.20;;;7.60;99.90;;;;;;4990235;28;20250;-90
2021/03/18 12:06:17;;;;;;;1.50;0.70;;;7.50;99.90;;;;;;4987418;28;20214;-90
2021/03/18 12:08:43;;;;;;;0.13;0.13;;;7.50;99.90;;;;;;4971366;28;20773;-89
2021/03/18 12:11:09;;;;;;;0.33;0.33;;;7.40;99.90;;;;;;4989643;28;20176;-92
2021/03/18 12:13:36;;;;;;;1.80;0.87;;;7.60;99.90;;;;;;4992821;28;20233;-90
2021/03/18 12:16:03;;;;;;;0.30;0.30;;;7.70;99.90;;;;;;5008124;28;20246;-91
2021/03/18 12:18:29;;;;;;;2.13;0.60;;;7.90;99.90;;;;;;5012870;28;20224;-91
2021/03/18 12:20:55;;;;;;;1.70;1.17;;;8.10;99.90;;;;;;5022111;28;20397;-91
2021/03/18 12:23:21;;;;;;;0.17;0.17;;;7.80;99.90;;;;;;5022396;28;20214;-91
2021/03/18 12:25:47;;;;;;;0.37;0.37;;;7.90;99.90;;;;;;5024570;28;20702;-91
2021/03/18 12:28:13;;;;;;;0.53;0.53;;;8.00;99.90;;;;;;5006490;28;20214;-91
2021/03/18 12:30:40;;;;;;;4.67;1.17;;;7.90;99.90;;;;;;4990934;28;20282;-92
2021/03/18 12:33:06;;;;;;;1.73;0.67;;;8.00;99.90;;;;;;5000192;28;20231;-91
2021/03/18 12:35:32;;;;;;;2.73;0.60;;;8.30;99.90;;;;;;5022245;28;20220;-90
2021/03/18 12:37:58;;;;;;;0.10;0.10;;;8.60;99.90;;;;;;5022921;28;20218;-91
2021/03/18 12:40:25;;;;;;;1.33;0.60;;;8.50;99.90;;;;;;5007919;28;20194;-91
2021/03/18 12:42:51;;;;;;;0.20;0.20;;;8.90;99.90;;;;;;4990380;28;20721;-91
2021/03/18 12:45:18;;;;;;;0.30;0.30;;;9.00;99.90;;;;;;5022523;28;20209;-91
2021/03/18 12:47:44;;;;;;;17.83;0.87;;;8.90;99.90;;;;;;5000099;28;20211;-90
2021/03/18 12:50:13;;;;;;;0.93;0.60;;;8.60;99.90;;;;;;4988908;28;20190;-91
2021/03/18 12:52:39;;;;;;;0.10;0.10;;;8.70;99.90;;;;;;5025267;28;20193;-91
2021/03/18 12:55:07;;;;;;;0.53;0.40;;;8.80;99.90;;;;;;4990151;28;20766;-91
2021/03/18 12:57:32;;;;;;;0.30;0.30;;;8.60;99.90;;;;;;5005520;28;20261;-91
2021/03/18 12:59:59;;;;;;;0.87;0.77;;;8.10;99.90;;;;;;5005990;28;20250;-91
2021/03/18 13:02:25;;;;;;;2.63;0.80;;;8.10;99.90;;;;;;4989982;28;20222;-91
2021/03/18 13:04:50;;;;;;;0.67;0.40;;;8.30;99.90;;;;;;4991719;28;20195;-91
2021/03/18 13:07:17;;;;;;;0.57;0.57;;;8.60;99.90;;;;;;4990497;28;20349;-90
2021/03/18 13:09:43;;;;;;;2.70;1.70;;;8.40;99.90;;;;;;5023162;28;20210;-90